Time;durP1;ratioP1;P1;durP2;ratioP2;P2;SDS_P1;SDS_P2;PMS_P1;PMS_P2;Temp;Humidity;BMP_temperature;BMP_pressure;BME280_temperature;BME280_humidity;BME280_pressure;Samples;Min_cycle;Max_cycle;Signal;HPM_P1;HPM_P2
2021/11/13 00:01:00;;;;;;;14.45;11.43;;;;;;;5.73;72.25;100662.88;4993868;28;20030;-43
2021/11/13 00:03:25;;;;;;;16.33;11.15;;;;;;;5.74;72.65;100663.75;4993495;28;21976;-43
2021/11/13 00:05:52;;;;;;;15.80;11.25;;;;;;;5.73;72.44;100665.47;5006860;28;20045;-42
2021/11/13 00:08:17;;;;;;;16.70;10.57;;;;;;;5.74;72.51;100667.22;4993994;28;20486;-43
2021/11/13 00:10:43;;;;;;;17.35;11.60;;;;;;;5.73;72.38;100668.09;4993768;28;20100;-43
2021/11/13 00:13:09;;;;;;;15.38;10.13;;;;;;;5.74;72.72;100659.38;4993387;28;20394;-43
2021/11/13 00:15:34;;;;;;;15.63;10.95;;;;;;;5.74;72.75;100650.66;4992478;28;20105;-43
2021/11/13 00:18:00;;;;;;;14.95;10.55;;;;;;;5.73;72.73;100655.00;4993751;28;20037;-44
2021/11/13 00:20:27;;;;;;;18.48;11.82;;;;;;;5.72;72.47;100655.00;4992531;28;20022;-42
2021/11/13 00:22:53;;;;;;;15.02;11.50;;;;;;;5.73;72.42;100648.88;4994640;28;20080;-43
2021/11/13 00:25:18;;;;;;;15.90;10.50;;;;;;;5.72;72.69;100650.66;5011522;28;20034;-43
2021/11/13 00:27:44;;;;;;;14.43;10.95;;;;;;;5.71;72.41;100654.13;5013052;28;20037;-43
2021/11/13 00:30:10;;;;;;;14.98;10.27;;;;;;;5.71;72.65;100638.44;5012896;28;20030;-43
2021/11/13 00:32:35;;;;;;;16.05;10.88;;;;;;;5.71;72.43;100638.44;5011649;28;20026;-43
2021/11/13 00:35:01;;;;;;;14.60;10.18;;;;;;;5.73;72.28;100648.88;4994827;28;20030;-43
2021/11/13 00:37:27;;;;;;;14.20;10.75;;;;;;;5.72;72.34;100640.19;4993116;28;20403;-45
2021/11/13 00:39:52;;;;;;;15.80;10.13;;;;;;;5.71;72.71;100633.19;4993792;28;20034;-43
2021/11/13 00:42:17;;;;;;;12.85;10.52;;;;;;;5.71;72.41;100627.97;4992898;28;20399;-42
2021/11/13 00:44:44;;;;;;;13.55;9.95;;;;;;;5.71;72.39;100635.81;4993101;28;20034;-42
2021/11/13 00:47:09;;;;;;;14.55;10.75;;;;;;;5.72;72.22;100652.38;4996035;28;20083;-43
2021/11/13 00:49:35;;;;;;;14.90;10.90;;;;;;;5.70;72.97;100647.13;5012039;28;20029;-43
2021/11/13 00:52:01;;;;;;;16.75;10.20;;;;;;;5.71;72.61;100646.28;5012610;28;20053;-43
2021/11/13 00:54:26;;;;;;;15.75;11.00;;;;;;;5.71;72.85;100632.31;4994894;28;20038;-43
2021/11/13 00:56:52;;;;;;;14.30;10.18;;;;;;;5.72;72.38;100628.81;5012161;28;20508;-43
2021/11/13 00:59:17;;;;;;;15.23;9.98;;;;;;;5.71;72.59;100633.19;5012659;28;20088;-43
2021/11/13 01:01:42;;;;;;;15.70;10.95;;;;;;;5.70;72.77;100635.78;5011244;28;20014;-43
2021/11/13 01:04:08;;;;;;;16.80;10.07;;;;;;;5.69;73.05;100629.69;5011098;28;20032;-43
2021/11/13 01:06:33;;;;;;;14.45;10.68;;;;;;;5.69;72.30;100634.91;4996144;28;20026;-42
2021/11/13 01:08:59;;;;;;;16.38;11.07;;;;;;;5.70;72.38;100631.41;5011694;28;20045;-43
2021/11/13 01:11:25;;;;;;;14.50;11.10;;;;;;;5.70;72.86;100633.19;5012591;28;20037;-43
2021/11/13 01:13:51;;;;;;;16.15;11.18;;;;;;;5.69;72.81;100627.06;5011628;28;20616;-43
2021/11/13 01:16:17;;;;;;;16.05;11.45;;;;;;;5.69;72.43;100637.53;4992614;28;20121;-44
2021/11/13 01:18:45;;;;;;;15.95;11.60;;;;;;;5.70;72.42;100620.94;4992887;28;20057;-43
2021/11/13 01:21:11;;;;;;;15.52;10.77;;;;;;;5.69;72.12;100629.69;5009535;28;20030;-43
2021/11/13 01:23:36;;;;;;;14.27;10.98;;;;;;;5.68;72.54;100622.69;5011824;28;20021;-43
2021/11/13 01:26:02;;;;;;;14.23;10.80;;;;;;;5.69;72.66;100627.06;5012310;28;20565;-43
2021/11/13 01:28:27;;;;;;;12.35;10.70;;;;;;;5.67;72.26;100626.16;5011388;28;20026;-44
2021/11/13 01:30:53;;;;;;;15.73;11.55;;;;;;;5.68;72.68;100612.22;5010398;28;20029;-43
2021/11/13 01:33:18;;;;;;;16.90;11.80;;;;;;;5.67;72.78;100620.06;5013574;28;20026;-43
2021/11/13 01:35:44;;;;;;;14.88;11.13;;;;;;;5.67;72.76;100622.69;5009393;28;20057;-43
2021/11/13 01:38:09;;;;;;;17.58;12.15;;;;;;;5.68;72.52;100624.41;5005315;28;20044;-44
2021/11/13 01:40:35;;;;;;;15.55;11.88;;;;;;;5.67;72.73;100609.59;5016193;28;20394;-43
2021/11/13 01:43:00;;;;;;;16.95;12.30;;;;;;;5.66;72.46;100619.16;5014669;28;20029;-43
2021/11/13 01:45:26;;;;;;;15.63;11.68;;;;;;;5.67;72.28;100609.59;5014768;28;20029;-43
2021/11/13 01:47:52;;;;;;;14.60;11.32;;;;;;;5.67;72.19;100609.59;5015593;28;20029;-44
2021/11/13 01:50:20;;;;;;;14.52;11.23;;;;;;;5.68;72.48;100601.75;4998120;28;20030;-44
2021/11/13 01:52:46;;;;;;;17.40;11.55;;;;;;;5.66;72.43;100603.47;5009515;28;20112;-43
2021/11/13 01:55:14;;;;;;;14.32;11.07;;;;;;;5.67;72.35;100613.06;5015938;28;20076;-43
2021/11/13 01:57:48;;;;;;;17.08;11.48;;;;;;;5.66;72.38;100613.94;5015809;28;20537;-44
2021/11/13 02:00:20;;;;;;;16.77;11.60;;;;;;;5.67;72.16;100604.34;5015644;28;20496;-42
2021/11/13 02:02:45;;;;;;;16.30;11.05;;;;;;;5.67;72.68;100599.13;5015254;28;20022;-42
2021/11/13 02:05:11;;;;;;;15.48;11.45;;;;;;;5.66;72.66;100611.31;5012072;28;20034;-43
2021/11/13 02:07:37;;;;;;;14.68;10.68;;;;;;;5.66;72.44;100603.47;5000068;28;20048;-44
2021/11/13 02:10:07;;;;;;;15.32;11.23;;;;;;;5.65;72.20;100601.72;5015545;28;20117;-43
2021/11/13 02:12:32;;;;;;;16.83;12.25;;;;;;;5.65;72.47;100605.22;5015270;28;20394;-43
2021/11/13 02:14:57;;;;;;;14.35;10.57;;;;;;;5.65;72.75;100614.81;4998612;28;20030;-43
2021/11/13 02:17:22;;;;;;;16.10;11.32;;;;;;;5.65;72.50;100601.72;4994736;28;20034;-42
2021/11/13 02:19:50;;;;;;;16.08;11.48;;;;;;;5.67;72.47;100602.59;4995746;28;20491;-42
2021/11/13 02:22:15;;;;;;;14.50;10.95;;;;;;;5.64;72.64;100595.59;4999920;28;20474;-43
2021/11/13 02:24:44;;;;;;;15.93;11.57;;;;;;;5.64;72.14;100595.59;5014923;28;20076;-43
2021/11/13 02:27:09;;;;;;;16.00;11.85;;;;;;;5.65;72.65;100596.50;5014381;28;20030;-42
2021/11/13 02:29:36;;;;;;;17.02;11.60;;;;;;;5.65;72.28;100591.25;5014076;28;20029;-43
2021/11/13 02:32:01;;;;;;;14.82;11.27;;;;;;;5.64;72.63;100586.88;5014011;28;20033;-43
2021/11/13 02:34:27;;;;;;;13.57;10.40;;;;;;;5.64;72.26;100587.75;5008698;28;20402;-42
2021/11/13 02:36:52;;;;;;;17.67;10.85;;;;;;;5.65;72.42;100575.56;5015008;28;20037;-43
2021/11/13 02:39:18;;;;;;;15.88;11.20;;;;;;;5.65;72.60;100591.25;5014918;28;20037;-40
2021/11/13 02:41:44;;;;;;;14.82;11.30;;;;;;;5.64;72.65;100589.50;5014717;28;20040;-40
2021/11/13 02:44:11;;;;;;;14.82;10.43;;;;;;;5.63;72.01;100593.84;5014820;28;20033;-41
2021/11/13 02:46:37;;;;;;;13.40;10.68;;;;;;;5.64;72.29;100590.38;5015112;28;20021;-40
2021/11/13 02:49:04;;;;;;;14.93;11.18;;;;;;;5.63;72.32;100590.34;5007273;28;20132;-41
2021/11/13 02:51:29;;;;;;;15.73;11.65;;;;;;;5.62;72.69;100586.88;5013210;28;20040;-42
2021/11/13 02:53:54;;;;;;;15.23;11.23;;;;;;;5.63;72.76;100592.97;5014605;28;20406;-41
2021/11/13 02:56:20;;;;;;;16.60;11.27;;;;;;;5.63;72.62;100588.63;5009465;28;20485;-40
2021/11/13 02:58:46;;;;;;;14.18;10.98;;;;;;;5.64;72.68;100598.22;5014373;28;20108;-41
2021/11/13 03:01:22;;;;;;;14.48;10.65;;;;;;;5.63;72.52;100590.34;5013134;28;20425;-40
2021/11/13 03:04:08;;;;;;;12.80;9.75;;;;;;;5.62;72.40;100585.97;5008563;28;20121;-40
2021/11/13 03:06:34;;;;;;;13.07;10.02;;;;;;;5.63;72.32;100587.72;4995269;28;20483;-42
2021/11/13 03:08:59;;;;;;;14.00;11.43;;;;;;;5.63;72.68;100582.50;4998614;28;20045;-40
2021/11/13 03:11:24;;;;;;;13.07;11.38;;;;;;;5.62;72.48;100597.34;5014571;28;20046;-41
2021/11/13 03:13:51;;;;;;;14.18;10.35;;;;;;;5.62;72.68;100585.97;5004763;28;20438;-40
2021/11/13 03:16:17;;;;;;;14.18;11.10;;;;;;;5.62;72.69;100599.97;4994916;28;20026;-40
2021/11/13 03:18:43;;;;;;;13.07;9.98;;;;;;;5.62;72.16;100601.69;4993676;28;20026;-41
2021/11/13 03:21:08;;;;;;;14.07;10.07;;;;;;;5.61;72.34;100595.56;5012224;28;20390;-41
2021/11/13 03:23:38;;;;;;;13.65;10.18;;;;;;;5.62;72.69;100601.69;5013839;28;20025;-40
2021/11/13 03:26:18;;;;;;;14.35;9.88;;;;;;;5.61;72.34;100605.16;5013022;28;20026;-40
2021/11/13 03:28:47;;;;;;;13.23;10.35;;;;;;;5.59;72.32;100596.41;5014165;28;20394;-41
2021/11/13 03:31:13;;;;;;;13.57;10.40;;;;;;;5.59;72.58;100591.19;5003788;28;20029;-41
2021/11/13 03:33:40;;;;;;;14.30;11.05;;;;;;;5.61;72.29;100595.56;5013501;28;20022;-40
2021/11/13 03:36:06;;;;;;;14.43;10.52;;;;;;;5.61;72.08;100599.94;5005867;28;20117;-40
2021/11/13 03:38:32;;;;;;;13.20;11.07;;;;;;;5.60;72.73;100591.19;5010496;28;20025;-42
2021/11/13 03:40:58;;;;;;;12.85;9.93;;;;;;;5.60;72.17;100585.09;5014064;28;20025;-40
2021/11/13 03:43:23;;;;;;;12.98;10.68;;;;;;;5.61;72.54;100594.69;5012434;28;20106;-40
2021/11/13 03:45:50;;;;;;;13.77;10.75;;;;;;;5.60;72.27;100592.97;5012774;28;20040;-40
2021/11/13 03:48:16;;;;;;;13.55;9.98;;;;;;;5.60;72.60;100595.56;5011532;28;20401;-40
2021/11/13 03:50:41;;;;;;;12.95;9.80;;;;;;;5.60;72.71;100587.72;5011815;28;20531;-39
2021/11/13 03:53:07;;;;;;;12.52;9.43;;;;;;;5.61;72.54;100597.31;4994313;28;20083;-39
2021/11/13 03:55:33;;;;;;;11.85;9.98;;;;;;;5.60;72.34;100592.97;4993764;28;20046;-40
2021/11/13 03:57:58;;;;;;;14.18;10.38;;;;;;;5.59;72.95;100586.84;4994096;28;20602;-40
2021/11/13 04:00:25;;;;;;;12.20;9.65;;;;;;;5.59;72.06;100581.59;4993870;28;20030;-41
2021/11/13 04:02:50;;;;;;;16.38;10.68;;;;;;;5.59;72.45;100585.94;4992594;28;20026;-40
2021/11/13 04:05:16;;;;;;;15.30;10.68;;;;;;;5.60;71.96;100592.97;4998539;28;20018;-41
2021/11/13 04:07:41;;;;;;;11.48;9.88;;;;;;;5.58;72.57;100584.19;5005406;28;20379;-41
2021/11/13 04:10:08;;;;;;;12.10;10.43;;;;;;;5.59;72.47;100601.66;4993768;28;20502;-41
2021/11/13 04:12:35;;;;;;;12.68;9.07;;;;;;;5.59;72.36;100596.41;4993609;28;20034;-41
2021/11/13 04:15:00;;;;;;;14.52;10.35;;;;;;;5.58;72.05;100594.66;4998276;28;20033;-42
2021/11/13 04:17:29;;;;;;;12.80;9.63;;;;;;;5.59;72.27;100580.72;5012297;28;20474;-40
2021/11/13 04:19:55;;;;;;;13.30;9.73;;;;;;;5.58;72.90;100590.31;5011134;28;20033;-40
2021/11/13 04:22:21;;;;;;;13.77;10.23;;;;;;;5.58;72.40;100578.97;5011199;28;20026;-41
2021/11/13 04:24:46;;;;;;;14.32;10.70;;;;;;;5.57;72.59;100579.84;5012837;28;20056;-40
2021/11/13 04:27:12;;;;;;;10.90;9.50;;;;;;;5.58;72.61;100581.59;5010246;28;20025;-41
2021/11/13 04:29:38;;;;;;;13.98;10.27;;;;;;;5.58;72.58;100581.59;4993192;28;20451;-40
2021/11/13 04:32:04;;;;;;;11.85;9.07;;;;;;;5.58;72.47;100578.97;4993050;28;20076;-40
2021/11/13 04:34:40;;;;;;;13.05;10.05;;;;;;;5.57;72.29;100574.59;4995570;28;20022;-40
2021/11/13 04:37:14;;;;;;;12.48;9.23;;;;;;;5.58;72.57;100584.19;5012549;28;20030;-40
2021/11/13 04:39:40;;;;;;;13.02;9.85;;;;;;;5.57;72.47;100574.59;4997207;28;20486;-40
2021/11/13 04:42:12;;;;;;;11.23;9.38;;;;;;;5.56;72.49;100564.97;4993134;28;20109;-40
2021/11/13 04:44:38;;;;;;;14.13;10.13;;;;;;;5.56;72.29;100559.75;5000412;28;20152;-40
2021/11/13 04:47:03;;;;;;;11.98;9.45;;;;;;;5.56;72.32;100571.09;5003551;28;20105;-42
2021/11/13 04:49:28;;;;;;;13.25;9.80;;;;;;;5.55;72.95;100573.69;5014096;28;20030;-41
2021/11/13 04:51:54;;;;;;;12.23;9.48;;;;;;;5.55;72.40;100574.59;5001725;28;20038;-40
2021/11/13 04:54:19;;;;;;;12.23;9.25;;;;;;;5.55;72.77;100582.44;5012669;28;20561;-41
2021/11/13 04:56:44;;;;;;;12.85;9.35;;;;;;;5.55;72.34;100574.59;4995799;28;20475;-39
2021/11/13 04:59:10;;;;;;;12.75;9.40;;;;;;;5.55;72.28;100578.94;4992700;28;20062;-40
2021/11/13 05:01:35;;;;;;;12.30;9.77;;;;;;;5.54;72.18;100570.22;5002875;28;20076;-41
2021/11/13 05:04:01;;;;;;;11.85;8.90;;;;;;;5.56;72.52;100580.69;5002345;28;20452;-40
2021/11/13 05:06:28;;;;;;;12.50;9.73;;;;;;;5.54;72.27;100580.69;5013003;28;20036;-40
2021/11/13 05:08:55;;;;;;;13.05;9.55;;;;;;;5.55;72.78;100581.56;5011616;28;20026;-41
2021/11/13 05:11:21;;;;;;;12.50;9.48;;;;;;;5.55;72.37;100584.16;5012485;28;20036;-41
2021/11/13 05:13:46;;;;;;;12.27;9.90;;;;;;;5.52;72.39;100583.28;5011887;28;20022;-41
2021/11/13 05:16:11;;;;;;;11.40;9.18;;;;;;;5.54;72.69;100587.66;5011826;28;20056;-40
2021/11/13 05:18:36;;;;;;;10.63;9.43;;;;;;;5.54;72.22;100595.50;5004532;28;20466;-40
2021/11/13 05:21:02;;;;;;;12.70;9.43;;;;;;;5.52;72.61;100596.38;4997375;28;20033;-40
2021/11/13 05:23:27;;;;;;;13.30;10.15;;;;;;;5.54;72.60;100590.28;4999348;28;20025;-40
2021/11/13 05:25:53;;;;;;;12.40;9.10;;;;;;;5.52;72.36;100593.75;5010999;28;20107;-41
2021/11/13 05:28:19;;;;;;;11.75;8.93;;;;;;;5.51;72.19;100598.97;5012156;28;20474;-40
2021/11/13 05:30:44;;;;;;;11.07;8.48;;;;;;;5.52;72.87;100598.97;4995323;28;20026;-42
2021/11/13 05:33:10;;;;;;;12.82;9.63;;;;;;;5.54;72.34;100608.59;5000989;28;20035;-40
2021/11/13 05:35:35;;;;;;;11.02;8.70;;;;;;;5.51;72.73;100598.97;5003594;28;20030;-41
2021/11/13 05:38:00;;;;;;;11.88;9.35;;;;;;;5.48;72.94;100605.06;5011190;28;20069;-40
2021/11/13 05:40:26;;;;;;;11.52;8.93;;;;;;;5.51;72.42;100598.97;5001795;28;20114;-40
2021/11/13 05:42:52;;;;;;;11.30;9.13;;;;;;;5.51;72.03;100610.28;4995587;28;20061;-40
2021/11/13 05:45:18;;;;;;;11.55;8.90;;;;;;;5.52;72.65;100604.22;5006747;28;20034;-40
2021/11/13 05:47:44;;;;;;;12.68;10.38;;;;;;;5.51;72.99;100610.28;5000561;28;20376;-41
2021/11/13 05:50:29;;;;;;;12.07;8.60;;;;;;;5.51;72.65;100615.53;5006258;28;20044;-40
2021/11/13 05:52:55;;;;;;;11.40;8.77;;;;;;;5.50;72.62;100616.38;4994582;28;20026;-40
2021/11/13 05:55:24;;;;;;;13.23;9.68;;;;;;;5.51;72.00;100615.53;5002832;28;20520;-40
2021/11/13 05:57:52;;;;;;;11.52;8.40;;;;;;;5.50;72.89;100613.78;4999250;28;20030;-42
2021/11/13 06:00:19;;;;;;;12.50;9.60;;;;;;;5.49;72.43;100622.50;5001589;28;20030;-42
2021/11/13 06:02:45;;;;;;;10.88;8.77;;;;;;;5.51;72.98;100618.13;5006354;28;20056;-45
2021/11/13 06:05:10;;;;;;;11.65;8.88;;;;;;;5.51;72.73;100614.66;4993881;28;20034;-41
2021/11/13 06:07:36;;;;;;;10.88;8.82;;;;;;;5.50;73.05;100611.16;4992139;28;20037;-41
2021/11/13 06:10:02;;;;;;;11.30;8.27;;;;;;;5.50;72.62;100605.03;4999241;28;20030;-41
2021/11/13 06:12:27;;;;;;;11.02;8.50;;;;;;;5.49;72.40;100617.25;4995004;28;20486;-40
2021/11/13 06:14:54;;;;;;;11.52;9.07;;;;;;;5.48;73.05;100623.38;5004926;28;20027;-40
2021/11/13 06:17:19;;;;;;;10.82;8.30;;;;;;;5.50;72.37;100623.34;5003659;28;20081;-40
2021/11/13 06:19:45;;;;;;;11.75;8.88;;;;;;;5.49;72.93;100627.72;4989540;28;20030;-41
2021/11/13 06:22:10;;;;;;;10.35;8.20;;;;;;;5.46;72.37;100619.84;5003004;28;20033;-40
2021/11/13 06:24:36;;;;;;;10.75;8.32;;;;;;;5.47;72.73;100624.19;4996848;28;20027;-40
2021/11/13 06:27:02;;;;;;;11.10;8.93;;;;;;;5.48;72.73;100622.47;5005175;28;20037;-42
2021/11/13 06:29:27;;;;;;;9.75;8.15;;;;;;;5.48;72.68;100622.47;5003160;28;20026;-41
2021/11/13 06:31:53;;;;;;;9.90;8.13;;;;;;;5.47;72.93;100632.03;4997631;28;20026;-40
2021/11/13 06:34:18;;;;;;;11.48;8.38;;;;;;;5.48;72.40;100635.56;5009074;28;20068;-40
2021/11/13 06:36:43;;;;;;;10.00;8.15;;;;;;;5.48;72.56;100636.44;5006490;28;20544;-41
2021/11/13 06:39:08;;;;;;;10.15;7.75;;;;;;;5.49;72.29;100642.53;5002871;28;20525;-40
2021/11/13 06:41:34;;;;;;;11.73;8.77;;;;;;;5.47;72.47;100639.91;5005158;28;20022;-41
2021/11/13 06:43:59;;;;;;;11.05;7.95;;;;;;;5.48;72.47;100641.69;5008311;28;20477;-40
2021/11/13 06:46:30;;;;;;;11.75;8.35;;;;;;;5.48;72.54;100639.06;4995284;28;20026;-40
2021/11/13 06:48:55;;;;;;;11.63;8.40;;;;;;;5.48;72.37;100643.41;5001521;28;20114;-41
2021/11/13 06:51:22;;;;;;;10.55;7.78;;;;;;;5.47;72.20;100639.03;4998404;28;20069;-40
2021/11/13 06:53:47;;;;;;;11.38;8.40;;;;;;;5.47;72.67;100649.50;5001955;28;20053;-45
2021/11/13 06:56:13;;;;;;;12.45;8.90;;;;;;;5.48;72.44;100643.41;5001434;28;20078;-41
2021/11/13 06:58:38;;;;;;;11.10;8.20;;;;;;;5.47;72.52;100642.50;5010779;28;20025;-42
2021/11/13 07:01:04;;;;;;;11.70;8.18;;;;;;;5.48;72.97;100651.25;4998384;28;20540;-40
2021/11/13 07:03:30;;;;;;;9.95;8.40;;;;;;;5.47;72.76;100647.75;4994806;28;20438;-41
2021/11/13 07:05:55;;;;;;;10.70;8.15;;;;;;;5.47;72.60;100644.28;5006114;28;20046;-41
2021/11/13 07:08:21;;;;;;;11.75;8.80;;;;;;;5.45;72.47;100657.34;5001044;28;20105;-41
2021/11/13 07:10:52;;;;;;;9.38;7.65;;;;;;;5.47;72.97;100652.13;5000786;28;20372;-41
2021/11/13 07:13:17;;;;;;;8.82;7.80;;;;;;;5.47;72.88;100660.81;5005658;28;20409;-42
2021/11/13 07:15:42;;;;;;;8.55;7.18;;;;;;;5.46;72.35;100652.97;5009675;28;20034;-41
2021/11/13 07:18:08;;;;;;;10.65;8.23;;;;;;;5.46;72.28;100647.72;5010795;28;20029;-43
2021/11/13 07:20:34;;;;;;;9.75;7.57;;;;;;;5.46;72.71;100651.22;5002199;28;20030;-42
2021/11/13 07:23:00;;;;;;;10.00;7.93;;;;;;;5.45;73.12;100646.88;4994330;28;20030;-43
2021/11/13 07:25:27;;;;;;;10.50;7.88;;;;;;;5.46;72.52;100652.97;4999390;28;20028;-43
2021/11/13 07:27:52;;;;;;;10.95;8.23;;;;;;;5.45;73.00;100652.09;5000378;28;20140;-43
2021/11/13 07:30:19;;;;;;;11.68;8.07;;;;;;;5.45;72.53;100657.34;5010501;28;20116;-42
2021/11/13 07:32:46;;;;;;;10.35;7.93;;;;;;;5.45;72.72;100665.19;4999901;28;20047;-41
2021/11/13 07:35:11;;;;;;;9.38;7.47;;;;;;;5.45;72.61;100657.34;5007887;28;20418;-41
2021/11/13 07:37:36;;;;;;;9.75;8.25;;;;;;;5.45;72.98;100661.66;5005339;28;20041;-41
2021/11/13 07:40:04;;;;;;;12.95;7.88;;;;;;;5.45;72.63;100664.28;4994198;28;20022;-41
2021/11/13 07:42:30;;;;;;;9.95;8.10;;;;;;;5.46;72.41;100664.31;4998929;28;20061;-40
2021/11/13 07:44:57;;;;;;;12.10;8.50;;;;;;;5.44;72.60;100660.78;5006669;28;20406;-40
2021/11/13 07:47:22;;;;;;;10.07;7.57;;;;;;;5.45;72.44;100678.25;5008695;28;20029;-41
2021/11/13 07:49:48;;;;;;;8.90;7.43;;;;;;;5.46;72.42;100681.72;5006930;28;20497;-41
2021/11/13 07:52:13;;;;;;;8.50;7.15;;;;;;;5.45;72.77;100683.50;5003894;28;20576;-41
2021/11/13 07:54:39;;;;;;;10.02;7.63;;;;;;;5.44;72.87;100681.72;5011747;28;20037;-40
2021/11/13 07:57:06;;;;;;;10.60;7.90;;;;;;;5.44;72.65;100686.09;4999969;28;20034;-41
2021/11/13 07:59:32;;;;;;;10.80;8.55;;;;;;;5.45;72.74;100693.94;4993512;28;20053;-43
2021/11/13 08:01:57;;;;;;;10.48;8.05;;;;;;;5.45;72.47;100682.59;4995795;28;20057;-41
2021/11/13 08:04:22;;;;;;;11.13;8.07;;;;;;;5.45;72.63;100687.84;5003617;28;20482;-40
2021/11/13 08:06:48;;;;;;;10.90;7.80;;;;;;;5.43;72.83;100682.56;4999724;28;20030;-41
2021/11/13 08:09:13;;;;;;;9.20;7.72;;;;;;;5.44;72.93;100692.19;4997670;28;20137;-41
2021/11/13 08:11:38;;;;;;;14.02;7.40;;;;;;;5.45;73.01;100691.34;5010233;28;20113;-41
2021/11/13 08:14:05;;;;;;;9.50;7.50;;;;;;;5.45;73.05;100699.19;5000941;28;20120;-41
2021/11/13 08:16:30;;;;;;;11.15;8.48;;;;;;;5.45;72.58;100686.09;5003908;28;20121;-41
2021/11/13 08:18:56;;;;;;;10.43;7.60;;;;;;;5.43;72.67;100689.56;4999607;28;20526;-42
2021/11/13 08:21:21;;;;;;;9.85;7.60;;;;;;;5.44;72.84;100697.41;5007557;28;20544;-40
2021/11/13 08:23:47;;;;;;;10.00;7.72;;;;;;;5.44;72.92;100688.69;5010053;28;20030;-40
2021/11/13 08:26:12;;;;;;;9.50;7.55;;;;;;;5.44;72.78;100691.31;5000905;28;20475;-41
2021/11/13 08:28:37;;;;;;;11.05;7.53;;;;;;;5.44;72.69;100686.09;5008772;28;20394;-40
2021/11/13 08:31:02;;;;;;;10.30;7.57;;;;;;;5.42;73.01;100693.91;5002125;28;20030;-41
2021/11/13 08:33:28;;;;;;;9.75;8.50;;;;;;;5.44;72.60;100686.94;5005093;28;20113;-41
2021/11/13 08:35:54;;;;;;;10.93;7.78;;;;;;;5.44;72.61;100693.94;4998587;28;20025;-40
2021/11/13 08:38:21;;;;;;;10.40;7.75;;;;;;;5.45;73.01;100693.94;5002883;28;20052;-40
2021/11/13 08:40:50;;;;;;;9.90;8.20;;;;;;;5.44;72.94;100689.56;5001084;28;20514;-41
2021/11/13 08:43:17;;;;;;;12.07;8.25;;;;;;;5.45;72.62;100693.06;4999709;28;20037;-42
2021/11/13 08:45:42;;;;;;;9.68;8.05;;;;;;;5.43;72.72;100687.81;5001551;28;20377;-44
2021/11/13 08:48:09;;;;;;;8.70;7.75;;;;;;;5.45;72.80;100682.59;5010338;28;20029;-42
2021/11/13 08:50:35;;;;;;;10.73;7.75;;;;;;;5.44;72.80;100679.09;5003136;28;20438;-42
2021/11/13 08:53:02;;;;;;;8.75;7.82;;;;;;;5.45;72.73;100678.25;5005051;28;20034;-43
2021/11/13 08:55:31;;;;;;;10.65;8.00;;;;;;;5.44;73.08;100676.47;5006004;28;20120;-43
2021/11/13 08:57:56;;;;;;;10.63;8.05;;;;;;;5.44;73.06;100676.47;4998871;28;20034;-43
2021/11/13 09:00:29;;;;;;;12.00;8.77;;;;;;;5.44;72.68;100675.63;5009556;28;20125;-43
2021/11/13 09:02:59;;;;;;;20.25;8.57;;;;;;;5.44;73.30;100668.63;4998169;28;20033;-42
2021/11/13 09:05:25;;;;;;;10.03;8.37;;;;;;;5.45;72.98;100667.78;4991378;28;20483;-41
2021/11/13 09:07:51;;;;;;;14.15;8.75;;;;;;;5.46;73.24;100671.25;5006748;28;20482;-42
2021/11/13 09:10:17;;;;;;;14.57;9.00;;;;;;;5.45;73.06;100673.03;5000510;28;20041;-41
2021/11/13 09:12:43;;;;;;;11.82;8.77;;;;;;;5.44;73.41;100666.00;5009190;28;20026;-42
2021/11/13 09:15:17;;;;;;;12.00;8.70;;;;;;;5.45;73.04;100667.78;5011026;28;20547;-42
2021/11/13 09:17:43;;;;;;;11.45;8.60;;;;;;;5.46;72.95;100671.25;5010901;28;20044;-41
2021/11/13 09:20:09;;;;;;;14.73;8.65;;;;;;;5.42;72.93;100672.97;5011147;28;20079;-42
2021/11/13 09:22:35;;;;;;;11.55;7.63;;;;;;;5.45;73.10;100667.78;5010967;28;20108;-42
2021/11/13 09:25:01;;;;;;;12.32;7.97;;;;;;;5.44;73.25;100671.25;5012102;28;20033;-42
2021/11/13 09:27:27;;;;;;;11.77;8.68;;;;;;;5.44;73.26;100680.84;5011570;28;20080;-42
2021/11/13 09:29:52;;;;;;;10.65;9.07;;;;;;;5.44;72.91;100679.09;5012007;28;20029;-41
2021/11/13 09:32:18;;;;;;;10.32;7.72;;;;;;;5.44;72.97;100673.88;5011852;28;20034;-42
2021/11/13 09:34:43;;;;;;;11.18;7.90;;;;;;;5.44;73.11;100676.47;5007890;28;20045;-41
2021/11/13 09:37:08;;;;;;;11.57;8.05;;;;;;;5.44;72.65;100673.00;5002862;28;20034;-42
2021/11/13 09:39:36;;;;;;;13.00;8.95;;;;;;;5.44;73.02;100671.25;5011858;28;20386;-42
2021/11/13 09:42:03;;;;;;;11.23;8.85;;;;;;;5.45;73.05;100673.03;5011656;28;20026;-42
2021/11/13 09:44:29;;;;;;;11.05;8.13;;;;;;;5.44;72.73;100673.88;5011397;28;20113;-42
2021/11/13 09:46:59;;;;;;;10.80;8.48;;;;;;;5.45;73.67;100677.38;5011758;28;20030;-42
2021/11/13 09:49:28;;;;;;;9.13;7.50;;;;;;;5.44;72.66;100666.00;5012445;28;20022;-42
2021/11/13 09:51:54;;;;;;;11.07;8.43;;;;;;;5.46;72.71;100661.69;5010808;28;20034;-42
2021/11/13 09:54:19;;;;;;;9.32;7.45;;;;;;;5.45;73.19;100679.97;5013267;28;20540;-42
2021/11/13 09:56:45;;;;;;;10.65;8.07;;;;;;;5.45;73.30;100683.50;5015839;28;20050;-42
2021/11/13 09:59:11;;;;;;;9.45;7.30;;;;;;;5.45;73.54;100680.88;5014361;28;20033;-41
2021/11/13 10:01:36;;;;;;;9.30;7.93;;;;;;;5.46;73.17;100684.34;5007847;28;20034;-41
2021/11/13 10:04:02;;;;;;;11.98;8.77;;;;;;;5.45;72.80;100678.25;4996104;28;20429;-42
2021/11/13 10:06:27;;;;;;;10.13;7.88;;;;;;;5.45;73.39;100670.41;4996086;28;20034;-42
2021/11/13 10:08:52;;;;;;;9.73;8.00;;;;;;;5.45;73.32;100672.13;4995930;28;20058;-41
2021/11/13 10:11:22;;;;;;;10.80;8.27;;;;;;;5.45;73.00;100675.63;4996199;28;20652;-42
2021/11/13 10:13:54;;;;;;;10.82;8.18;;;;;;;5.45;73.72;100662.56;4994334;28;20089;-42
2021/11/13 10:16:22;;;;;;;9.55;7.80;;;;;;;5.44;73.39;100662.53;4994651;28;20026;-43
2021/11/13 10:18:49;;;;;;;10.77;8.07;;;;;;;5.45;73.64;100661.66;5020218;28;20379;-41
2021/11/13 10:21:29;;;;;;;11.43;8.23;;;;;;;5.46;73.68;100674.78;5015197;28;20022;-42
2021/11/13 10:23:58;;;;;;;11.57;8.52;;;;;;;5.46;73.80;100664.31;5014989;28;20129;-42
2021/11/13 10:26:34;;;;;;;10.57;8.07;;;;;;;5.46;73.30;100659.06;5014455;28;20145;-43
2021/11/13 10:29:06;;;;;;;11.40;7.85;;;;;;;5.45;73.14;100657.34;5015783;28;20017;-42
2021/11/13 10:31:34;;;;;;;10.77;7.63;;;;;;;5.45;73.42;100652.09;5013866;28;20393;-42
2021/11/13 10:34:06;;;;;;;12.27;8.35;;;;;;;5.46;73.50;100663.41;5013939;28;20036;-42
2021/11/13 10:36:37;;;;;;;10.38;8.32;;;;;;;5.47;73.59;100655.59;4998890;28;20046;-42
2021/11/13 10:39:02;;;;;;;;;;;;;;;5.46;73.79;100658.19;4995952;28;20097;-42
2021/11/13 10:41:28;;;;;;;11.17;7.87;;;;;;;5.46;73.76;100648.63;5005451;28;19956;-42
2021/11/13 10:43:54;;;;;;;10.60;7.72;;;;;;;5.47;73.17;100641.66;5014748;28;20427;-40
2021/11/13 10:46:22;;;;;;;9.50;7.40;;;;;;;5.49;73.41;100645.16;5014974;28;20045;-42
2021/11/13 10:48:59;;;;;;;11.13;7.88;;;;;;;5.49;73.68;100646.03;5014974;28;20041;-42
2021/11/13 10:51:30;;;;;;;12.38;8.90;;;;;;;5.50;73.19;100639.03;5013864;28;20036;-42
2021/11/13 10:53:56;;;;;;;10.30;8.32;;;;;;;5.51;73.85;100636.44;5013786;28;20025;-42
2021/11/13 10:56:24;;;;;;;8.32;7.05;;;;;;;5.52;73.09;100642.56;5014701;28;20052;-45
2021/11/13 10:58:49;;;;;;;11.15;7.45;;;;;;;5.54;73.29;100629.50;5014509;28;20029;-42
2021/11/13 11:01:45;;;;;;;8.40;7.20;;;;;;;5.56;73.72;100628.66;5014201;28;20018;-44
2021/11/13 11:04:27;;;;;;;9.48;7.63;;;;;;;5.56;73.64;100633.00;5005824;28;20281;-42
2021/11/13 11:07:00;;;;;;;9.95;8.05;;;;;;;5.57;73.23;100621.69;5013152;28;20026;-41
2021/11/13 11:09:32;;;;;;;10.50;7.80;;;;;;;5.60;73.74;100624.34;5013866;28;20030;-42
2021/11/13 11:12:00;;;;;;;9.57;7.18;;;;;;;5.58;73.66;100624.34;5013161;28;20458;-41
2021/11/13 11:14:49;;;;;;;10.60;7.60;;;;;;;5.60;73.22;100619.97;5014487;28;20025;-42
2021/11/13 11:17:20;;;;;;;10.27;7.05;;;;;;;5.61;73.22;100620.88;5013461;28;20048;-42
2021/11/13 11:19:50;;;;;;;8.32;7.13;;;;;;;5.61;73.30;100624.34;5014173;28;20100;-42
2021/11/13 11:22:24;;;;;;;9.55;7.38;;;;;;;5.62;73.38;100623.50;4997586;28;20041;-41